createdAt,value
2022-12-05T00:01:46.845Z,7.20
2022-12-05T00:04:13.055Z,6.68
2022-12-05T00:06:39.228Z,6.70
2022-12-05T00:09:05.380Z,6.70
2022-12-05T00:11:31.471Z,6.15
2022-12-05T00:13:57.589Z,7.28
2022-12-05T00:16:23.827Z,6.70
2022-12-05T00:18:49.992Z,6.85
2022-12-05T00:21:16.113Z,6.93
2022-12-05T00:23:42.216Z,7.18
2022-12-05T00:26:08.330Z,6.18
2022-12-05T00:28:34.437Z,7.00
2022-12-05T00:31:00.535Z,6.75
2022-12-05T00:33:26.667Z,7.35
2022-12-05T00:35:52.787Z,6.10
2022-12-05T00:38:18.924Z,6.20
2022-12-05T00:40:45.973Z,6.90
2022-12-05T00:43:12.093Z,6.75
2022-12-05T00:45:38.237Z,7.80
2022-12-05T00:48:04.372Z,6.63
2022-12-05T00:50:30.479Z,6.88
2022-12-05T00:52:57.418Z,6.43
2022-12-05T00:55:23.540Z,6.57
2022-12-05T00:57:49.713Z,6.25
2022-12-05T01:00:15.836Z,6.70
2022-12-05T01:02:42.001Z,6.70
2022-12-05T01:05:08.135Z,7.32
2022-12-05T01:07:34.289Z,6.95
2022-12-05T01:10:00.410Z,7.50
2022-12-05T01:12:26.538Z,6.90
2022-12-05T01:14:52.686Z,7.70
2022-12-05T01:17:18.825Z,7.35
2022-12-05T01:19:44.967Z,7.53
2022-12-05T01:22:11.100Z,7.03
2022-12-05T01:24:37.235Z,6.78
2022-12-05T01:27:03.351Z,7.82
2022-12-05T01:29:29.488Z,7.53
2022-12-05T01:31:55.615Z,6.93
2022-12-05T01:34:21.772Z,6.82
2022-12-05T01:36:47.887Z,6.50
2022-12-05T01:39:13.989Z,7.80
2022-12-05T01:41:40.128Z,8.30
2022-12-05T01:44:06.271Z,7.45
2022-12-05T01:46:32.457Z,7.53
2022-12-05T01:48:58.687Z,7.47
2022-12-05T01:51:24.942Z,7.75
2022-12-05T01:53:51.084Z,8.00
2022-12-05T01:56:17.220Z,8.40
2022-12-05T01:58:43.459Z,8.48
2022-12-05T02:01:09.678Z,9.07
2022-12-05T02:03:36.022Z,7.93
2022-12-05T02:06:02.192Z,8.27
2022-12-05T02:08:28.451Z,7.68
2022-12-05T02:10:54.639Z,7.97
2022-12-05T02:13:20.734Z,8.55
2022-12-05T02:15:48.304Z,7.75
2022-12-05T02:18:16.188Z,8.20
2022-12-05T02:20:42.432Z,7.30
2022-12-05T02:23:08.544Z,9.07
2022-12-05T02:25:34.915Z,8.20
2022-12-05T02:28:01.102Z,8.02
2022-12-05T02:30:27.241Z,8.43
2022-12-05T02:32:53.358Z,8.38
2022-12-05T02:35:19.489Z,9.13
2022-12-05T02:37:45.639Z,8.88
2022-12-05T02:40:11.854Z,7.72
2022-12-05T02:42:37.992Z,8.45
2022-12-05T02:45:04.112Z,9.00
2022-12-05T02:47:30.242Z,9.00
2022-12-05T02:49:56.782Z,9.15
2022-12-05T02:52:23.122Z,8.88
2022-12-05T02:54:49.299Z,8.27
2022-12-05T02:57:15.429Z,8.95
2022-12-05T02:59:41.638Z,8.07
2022-12-05T03:02:07.739Z,9.07
2022-12-05T03:04:33.999Z,8.25
2022-12-05T03:07:00.162Z,8.80
2022-12-05T03:09:26.313Z,7.60
2022-12-05T03:11:52.411Z,8.18
2022-12-05T03:14:18.547Z,7.85
2022-12-05T03:16:44.725Z,7.45
2022-12-05T03:19:10.940Z,7.28
2022-12-05T03:21:37.072Z,6.95
2022-12-05T03:24:03.201Z,8.15
2022-12-05T03:26:29.509Z,7.40
2022-12-05T03:28:55.667Z,5.28
2022-12-05T03:31:21.783Z,7.57
2022-12-05T03:33:48.135Z,7.93
2022-12-05T03:36:14.407Z,6.32
2022-12-05T03:38:40.514Z,6.25
2022-12-05T03:41:06.654Z,6.68
2022-12-05T03:43:32.772Z,8.05
2022-12-05T03:45:59.023Z,6.80
2022-12-05T03:48:25.210Z,7.78
2022-12-05T03:50:51.348Z,6.35
2022-12-05T03:53:20.036Z,7.72
2022-12-05T03:55:46.929Z,7.63
2022-12-05T03:58:13.097Z,8.23
2022-12-05T04:00:39.214Z,7.70
2022-12-05T04:03:05.411Z,8.65
2022-12-05T04:05:31.686Z,8.68
2022-12-05T04:07:57.958Z,8.00
2022-12-05T04:10:24.286Z,8.45
2022-12-05T04:12:50.408Z,8.35
2022-12-05T04:15:16.551Z,7.10
2022-12-05T04:17:42.667Z,8.35
2022-12-05T04:20:08.873Z,7.65
2022-12-05T04:22:34.978Z,7.53
2022-12-05T04:25:01.083Z,8.68
2022-12-05T04:27:27.213Z,7.25
2022-12-05T04:29:53.342Z,7.22
2022-12-05T04:32:19.507Z,6.72
2022-12-05T04:34:45.631Z,6.85
2022-12-05T04:37:11.755Z,5.78
2022-12-05T04:39:37.886Z,7.13
2022-12-05T04:42:04.085Z,7.00
2022-12-05T04:44:30.319Z,6.78
2022-12-05T04:46:56.537Z,7.38
2022-12-05T04:49:22.735Z,6.40
2022-12-05T04:51:48.873Z,7.00
2022-12-05T04:54:15.008Z,7.20
2022-12-05T04:56:41.143Z,7.38
2022-12-05T04:59:07.257Z,7.68
2022-12-05T05:01:33.516Z,8.10
2022-12-05T05:03:59.771Z,7.53
2022-12-05T05:06:25.917Z,7.57
2022-12-05T05:08:52.083Z,7.75
2022-12-05T05:11:18.208Z,7.25
2022-12-05T05:13:44.341Z,7.05
2022-12-05T05:16:10.599Z,8.02
2022-12-05T05:18:36.753Z,8.20
2022-12-05T05:21:02.919Z,7.28
2022-12-05T05:23:29.057Z,7.22
2022-12-05T05:25:55.199Z,7.55
2022-12-05T05:28:21.304Z,7.93
2022-12-05T05:30:47.470Z,7.85
2022-12-05T05:33:13.643Z,8.27
2022-12-05T05:35:39.811Z,8.77
2022-12-05T05:38:05.935Z,7.53
2022-12-05T05:40:32.064Z,8.25
2022-12-05T05:42:58.242Z,9.10
2022-12-05T05:45:24.357Z,8.57
2022-12-05T05:47:50.494Z,8.95
2022-12-05T05:50:21.420Z,8.85
2022-12-05T05:52:48.039Z,8.27
2022-12-05T05:55:14.504Z,8.27
2022-12-05T05:57:40.634Z,7.75
2022-12-05T06:00:06.759Z,7.90
2022-12-05T06:02:32.985Z,7.22
2022-12-05T06:04:59.334Z,8.13
2022-12-05T06:07:25.464Z,7.70
2022-12-05T06:09:51.573Z,8.15
2022-12-05T06:12:17.706Z,8.23
2022-12-05T06:14:43.845Z,7.40
2022-12-05T06:17:10.013Z,7.70
2022-12-05T06:19:36.158Z,7.82
2022-12-05T06:22:02.321Z,8.43
2022-12-05T06:24:28.435Z,8.18
2022-12-05T06:26:54.533Z,7.05
2022-12-05T06:29:25.320Z,8.00
2022-12-05T06:31:52.389Z,7.97
2022-12-05T06:34:18.556Z,7.88
2022-12-05T06:36:44.668Z,8.05
2022-12-05T06:39:10.792Z,7.65
2022-12-05T06:41:36.905Z,7.85
2022-12-05T06:44:03.018Z,7.40
2022-12-05T06:46:29.249Z,7.53
2022-12-05T06:48:55.475Z,7.18
2022-12-05T06:51:21.641Z,8.05
2022-12-05T06:53:47.781Z,7.22
2022-12-05T06:56:13.918Z,7.70
2022-12-05T06:58:40.112Z,7.07
2022-12-05T07:01:06.347Z,7.70
2022-12-05T07:03:32.538Z,7.70
2022-12-05T07:05:58.741Z,7.07
2022-12-05T07:08:24.939Z,7.25
2022-12-05T07:10:51.108Z,6.95
2022-12-05T07:13:17.258Z,7.43
2022-12-05T07:15:43.468Z,7.35
2022-12-05T07:18:09.603Z,7.05
2022-12-05T07:21:10.259Z,8.00
2022-12-05T07:23:21.876Z,6.35
2022-12-05T07:25:48.017Z,7.18
2022-12-05T07:28:14.159Z,7.22
2022-12-05T07:30:40.300Z,7.18
2022-12-05T07:33:06.419Z,7.63
2022-12-05T07:35:32.607Z,6.63
2022-12-05T07:37:58.772Z,7.50
2022-12-05T07:40:24.953Z,7.15
2022-12-05T07:42:51.107Z,6.43
2022-12-05T07:45:17.233Z,6.75
2022-12-05T07:47:45.578Z,8.05
2022-12-05T07:52:52.050Z,7.03
2022-12-05T07:55:18.282Z,7.57
2022-12-05T07:57:44.400Z,7.35
2022-12-05T08:00:10.534Z,7.07
2022-12-05T08:02:40.310Z,7.20
2022-12-05T08:05:06.906Z,6.68
2022-12-05T08:07:33.063Z,6.57
2022-12-05T08:09:59.592Z,7.10
2022-12-05T08:12:25.930Z,6.35
2022-12-05T08:14:52.055Z,7.10
2022-12-05T08:17:18.162Z,7.32
2022-12-05T08:19:44.308Z,7.18
2022-12-05T08:22:10.424Z,7.22
2022-12-05T08:24:36.578Z,7.57
2022-12-05T08:27:02.698Z,7.20
2022-12-05T08:29:28.832Z,7.03
2022-12-05T08:31:54.941Z,7.93
2022-12-05T08:34:21.151Z,7.38
2022-12-05T08:36:47.295Z,6.68
2022-12-05T08:39:13.445Z,7.03
2022-12-05T08:41:39.558Z,7.00
2022-12-05T08:44:05.702Z,6.63
2022-12-05T08:46:31.877Z,6.45
2022-12-05T08:48:58.030Z,6.80
2022-12-05T08:51:24.182Z,6.40
2022-12-05T08:53:50.277Z,6.60
2022-12-05T08:56:16.512Z,6.03
2022-12-05T08:58:42.652Z,6.25
2022-12-05T09:01:08.821Z,6.40
2022-12-05T09:03:36.225Z,6.35
2022-12-05T09:06:02.334Z,5.93
2022-12-05T09:08:28.454Z,6.57
2022-12-05T09:10:54.587Z,6.35
2022-12-05T09:13:20.742Z,6.70
2022-12-05T09:15:46.932Z,6.20
2022-12-05T09:18:13.092Z,5.85
2022-12-05T09:20:39.241Z,5.80
2022-12-05T09:23:05.348Z,6.20
2022-12-05T09:25:31.489Z,6.32
2022-12-05T09:27:57.617Z,6.25
2022-12-05T09:30:23.832Z,5.65
2022-12-05T09:32:50.006Z,6.35
2022-12-05T09:35:16.128Z,5.88
2022-12-05T09:37:42.238Z,6.22
2022-12-05T09:40:08.368Z,5.60
2022-12-05T09:42:34.493Z,5.90
2022-12-05T09:45:00.967Z,6.28
2022-12-05T09:47:27.343Z,7.13
2022-12-05T09:49:53.502Z,6.32
2022-12-05T09:52:19.656Z,6.18
2022-12-05T09:54:45.769Z,6.40
2022-12-05T09:57:11.942Z,6.45
2022-12-05T09:59:38.084Z,6.30
2022-12-05T10:02:04.331Z,5.78
2022-12-05T10:04:30.620Z,6.18
2022-12-05T10:06:56.868Z,5.82
2022-12-05T10:09:23.049Z,5.93
2022-12-05T10:11:49.420Z,6.28
2022-12-05T10:14:15.545Z,6.25
2022-12-05T10:16:41.755Z,5.95
2022-12-05T10:19:07.950Z,6.10
2022-12-05T10:21:34.121Z,5.97
2022-12-05T10:24:00.235Z,5.93
2022-12-05T10:26:26.419Z,5.93
2022-12-05T10:28:52.579Z,6.40
2022-12-05T10:31:18.779Z,6.22
2022-12-05T10:33:44.937Z,6.00
2022-12-05T10:36:11.105Z,6.18
2022-12-05T10:38:37.210Z,6.10
2022-12-05T10:41:03.326Z,6.10
2022-12-05T10:43:29.509Z,5.95
2022-12-05T10:45:55.638Z,5.50
2022-12-05T10:48:21.784Z,5.70
2022-12-05T10:50:47.890Z,6.78
2022-12-05T10:53:13.989Z,5.68
2022-12-05T10:55:40.119Z,5.75
2022-12-05T10:58:06.236Z,5.93
2022-12-05T11:00:32.375Z,5.93
2022-12-05T11:02:58.874Z,6.03
2022-12-05T11:05:25.089Z,5.95
2022-12-05T11:07:51.332Z,5.55
2022-12-05T11:10:20.104Z,6.07
2022-12-05T11:12:49.755Z,6.32
2022-12-05T11:15:15.894Z,6.30
2022-12-05T11:17:42.024Z,6.40
2022-12-05T11:20:08.137Z,6.03
2022-12-05T11:22:34.260Z,6.65
2022-12-05T11:25:00.614Z,6.93
2022-12-05T11:27:26.872Z,7.18
2022-12-05T11:29:52.982Z,6.15
2022-12-05T11:32:19.123Z,6.40
2022-12-05T11:34:45.237Z,7.20
2022-12-05T11:37:11.384Z,6.53
2022-12-05T11:39:37.508Z,7.57
2022-12-05T11:42:03.661Z,6.97
2022-12-05T11:44:29.798Z,6.03
2022-12-05T11:46:55.981Z,6.60
2022-12-05T11:49:22.126Z,6.63
2022-12-05T11:51:48.240Z,5.93
2022-12-05T11:54:14.348Z,6.60
2022-12-05T11:56:40.494Z,7.15
2022-12-05T11:59:06.608Z,6.55
2022-12-05T12:01:32.748Z,6.05
2022-12-05T12:03:58.934Z,6.43
2022-12-05T12:06:25.047Z,6.30
2022-12-05T12:08:51.186Z,5.80
2022-12-05T12:11:17.293Z,4.82
2022-12-05T12:13:43.424Z,5.35
2022-12-05T12:16:09.592Z,5.15
2022-12-05T12:18:35.743Z,5.85
2022-12-05T12:21:01.866Z,5.47
2022-12-05T12:23:27.992Z,5.43
2022-12-05T12:25:54.125Z,5.85
2022-12-05T12:28:20.243Z,5.68
2022-12-05T12:30:46.346Z,4.70
2022-12-05T12:33:12.475Z,3.83
2022-12-05T12:35:38.576Z,4.32
2022-12-05T12:38:04.712Z,3.67
2022-12-05T12:40:30.835Z,4.00
2022-12-05T12:42:56.966Z,4.15
2022-12-05T12:45:23.108Z,3.55
2022-12-05T12:47:49.242Z,4.15
2022-12-05T12:50:15.346Z,3.72
2022-12-05T12:52:41.477Z,3.33
2022-12-05T12:55:07.599Z,3.90
2022-12-05T12:57:33.788Z,3.38
2022-12-05T13:00:00.131Z,3.00
2022-12-05T13:02:26.480Z,3.30
2022-12-05T13:04:52.639Z,3.13
2022-12-05T13:07:18.740Z,3.22
2022-12-05T13:09:48.761Z,3.67
2022-12-05T13:12:17.712Z,3.53
2022-12-05T13:14:43.852Z,2.80
2022-12-05T13:17:10.022Z,2.33
2022-12-05T13:19:36.200Z,2.80
2022-12-05T13:22:02.321Z,2.90
2022-12-05T13:24:28.481Z,2.65
2022-12-05T13:26:54.594Z,2.78
2022-12-05T13:29:20.749Z,2.70
2022-12-05T13:31:46.908Z,2.50
2022-12-05T13:34:13.042Z,2.38
2022-12-05T13:36:39.137Z,2.10
2022-12-05T13:39:05.275Z,2.55
2022-12-05T13:41:31.383Z,1.90
2022-12-05T13:44:06.373Z,2.20
2022-12-05T13:46:33.276Z,1.90
2022-12-05T13:48:59.444Z,2.28
2022-12-05T13:51:25.561Z,1.70
2022-12-05T13:53:51.686Z,1.77
2022-12-05T13:56:17.787Z,1.67
2022-12-05T13:58:43.938Z,1.90
2022-12-05T14:01:10.102Z,1.90
2022-12-05T14:03:36.285Z,1.50
2022-12-05T14:06:02.419Z,2.05
2022-12-05T14:08:28.675Z,1.95
2022-12-05T14:10:54.792Z,1.77
2022-12-05T14:13:20.934Z,1.60
2022-12-05T14:15:47.152Z,1.85
2022-12-05T14:18:13.286Z,1.75
2022-12-05T14:20:39.459Z,2.00
2022-12-05T14:23:05.601Z,1.88
2022-12-05T14:25:31.757Z,2.08
2022-12-05T14:27:57.885Z,1.90
2022-12-05T14:30:24.057Z,2.53
2022-12-05T14:32:50.235Z,2.00
2022-12-05T14:35:16.394Z,2.00
2022-12-05T14:37:48.410Z,1.85
2022-12-05T14:40:16.029Z,2.10
2022-12-05T14:42:42.196Z,2.38
2022-12-05T14:45:08.334Z,2.15
2022-12-05T14:47:34.456Z,1.73
2022-12-05T14:50:00.944Z,1.70
2022-12-05T14:52:27.368Z,1.70
2022-12-05T14:54:53.544Z,1.88
2022-12-05T14:57:19.665Z,1.73
2022-12-05T14:59:45.811Z,1.80
2022-12-05T15:02:12.048Z,2.05
2022-12-05T15:04:38.195Z,1.92
2022-12-05T15:07:04.344Z,2.00
2022-12-05T15:09:38.413Z,1.67
2022-12-05T15:12:09.370Z,1.90
2022-12-05T15:14:35.948Z,2.03
2022-12-05T15:17:02.112Z,1.92
2022-12-05T15:19:28.229Z,2.75
2022-12-05T15:21:54.358Z,2.20
2022-12-05T15:24:20.486Z,1.98
2022-12-05T15:26:48.038Z,1.52
2022-12-05T15:29:14.492Z,2.03
2022-12-05T15:31:40.678Z,1.90
2022-12-05T15:34:06.788Z,1.90
2022-12-05T15:36:32.920Z,1.48
2022-12-05T15:38:59.066Z,1.90
2022-12-05T15:41:25.246Z,1.90
2022-12-05T15:43:51.350Z,1.85
2022-12-05T15:46:17.514Z,1.63
2022-12-05T15:48:43.667Z,1.90
2022-12-05T15:51:09.967Z,2.20
2022-12-05T15:53:36.105Z,2.10
2022-12-05T15:56:02.254Z,1.70
2022-12-05T15:58:28.401Z,2.15
2022-12-05T16:00:54.531Z,1.83
2022-12-05T16:03:20.719Z,1.75
2022-12-05T16:05:46.872Z,1.60
2022-12-05T16:08:13.066Z,1.58
2022-12-05T16:10:39.224Z,1.80
2022-12-05T16:13:05.324Z,2.00
2022-12-05T16:15:31.467Z,2.20
2022-12-05T16:17:57.639Z,1.60
2022-12-05T16:20:23.852Z,1.67
2022-12-05T16:22:49.979Z,1.90
2022-12-05T16:25:16.137Z,1.63
2022-12-05T16:27:42.379Z,2.00
2022-12-05T16:30:08.507Z,1.77
2022-12-05T16:32:34.660Z,1.60
2022-12-05T16:35:00.758Z,1.70
2022-12-05T16:37:26.888Z,1.70
2022-12-05T16:39:52.988Z,1.77
2022-12-05T16:42:19.132Z,2.03
2022-12-05T16:44:45.281Z,1.80
2022-12-05T16:47:11.426Z,2.85
2022-12-05T16:49:44.330Z,1.40
2022-12-05T16:52:12.059Z,1.60
2022-12-05T16:54:38.269Z,1.20
2022-12-05T16:57:04.393Z,1.30
2022-12-05T16:59:30.555Z,1.50
2022-12-05T17:01:56.723Z,1.67
2022-12-05T17:04:22.924Z,1.70
2022-12-05T17:06:49.155Z,1.40
2022-12-05T17:09:15.312Z,1.08
2022-12-05T17:11:41.509Z,1.00
2022-12-05T17:14:07.612Z,1.50
2022-12-05T17:16:33.833Z,1.05
2022-12-05T17:19:00.035Z,1.20
2022-12-05T17:21:26.176Z,1.30
2022-12-05T17:23:52.335Z,1.00
2022-12-05T17:26:18.459Z,0.98
2022-12-05T17:28:44.587Z,1.17
2022-12-05T17:31:10.752Z,1.13
2022-12-05T17:33:36.871Z,1.20
2022-12-05T17:36:03.018Z,1.17
2022-12-05T17:38:29.128Z,1.10
2022-12-05T17:40:55.307Z,1.40
2022-12-05T17:43:24.963Z,1.10
2022-12-05T17:45:51.333Z,1.40
2022-12-05T17:48:17.459Z,2.20
2022-12-05T17:50:43.627Z,1.38
2022-12-05T17:53:09.738Z,2.10
2022-12-05T17:55:35.888Z,1.45
2022-12-05T17:58:02.042Z,0.98
2022-12-05T18:00:28.195Z,1.23
2022-12-05T18:02:54.339Z,1.40
2022-12-05T18:05:20.510Z,1.33
2022-12-05T18:07:46.667Z,1.05
2022-12-05T18:10:13.090Z,1.40
2022-12-05T18:12:39.330Z,1.27
2022-12-05T18:15:05.481Z,1.30
2022-12-05T18:17:31.637Z,1.30
2022-12-05T18:19:57.807Z,1.45
2022-12-05T18:22:23.915Z,1.52
2022-12-05T18:24:50.084Z,2.20
2022-12-05T18:27:16.205Z,1.80
2022-12-05T18:29:42.368Z,2.40
2022-12-05T18:32:08.566Z,1.70
2022-12-05T18:34:34.849Z,2.25
2022-12-05T18:37:00.983Z,1.58
2022-12-05T18:39:27.113Z,1.70
2022-12-05T18:41:53.218Z,1.60
2022-12-05T18:44:19.454Z,1.83
2022-12-05T18:46:45.643Z,1.65
2022-12-05T18:49:11.771Z,1.50
2022-12-05T18:51:37.899Z,1.90
2022-12-05T18:54:04.077Z,1.50
2022-12-05T18:56:30.760Z,1.40
2022-12-05T18:58:57.180Z,1.77
2022-12-05T19:01:23.445Z,1.63
2022-12-05T19:03:49.668Z,1.77
2022-12-05T19:06:15.818Z,1.77
2022-12-05T19:08:42.008Z,1.27
2022-12-05T19:11:08.149Z,1.20
2022-12-05T19:13:34.317Z,1.48
2022-12-05T19:16:00.507Z,1.30
2022-12-05T19:18:26.702Z,1.77
2022-12-05T19:20:52.903Z,1.45
2022-12-05T19:23:19.014Z,1.88
2022-12-05T19:25:45.142Z,1.20
2022-12-05T19:28:11.259Z,1.10
2022-12-05T19:30:37.437Z,0.98
2022-12-05T19:33:03.559Z,1.00
2022-12-05T19:35:29.685Z,1.08
2022-12-05T19:37:55.798Z,1.55
2022-12-05T19:40:21.998Z,1.10
2022-12-05T19:42:48.158Z,1.17
2022-12-05T19:45:17.926Z,0.88
2022-12-05T19:47:45.047Z,1.40
2022-12-05T19:50:12.287Z,0.95
2022-12-05T19:52:40.255Z,1.30
2022-12-05T19:55:06.417Z,1.98
2022-12-05T19:57:32.545Z,1.00
2022-12-05T19:59:59.008Z,0.98
2022-12-05T20:02:25.460Z,1.23
2022-12-05T20:04:51.662Z,1.10
2022-12-05T20:07:17.860Z,0.88
2022-12-05T20:09:43.965Z,1.67
2022-12-05T20:12:10.085Z,1.42
2022-12-05T20:14:36.187Z,1.70
2022-12-05T20:17:02.348Z,1.30
2022-12-05T20:19:28.711Z,1.42
2022-12-05T20:21:54.835Z,1.50
2022-12-05T20:24:21.140Z,1.30
2022-12-05T20:26:47.267Z,3.42
2022-12-05T20:29:13.385Z,2.00
2022-12-05T20:31:39.507Z,2.10
2022-12-05T20:34:05.615Z,1.60
2022-12-05T20:36:31.722Z,1.65
2022-12-05T20:38:57.966Z,2.00
2022-12-05T20:41:24.079Z,2.45
2022-12-05T20:43:50.210Z,2.03
2022-12-05T20:46:16.398Z,2.00
2022-12-05T20:48:42.565Z,2.13
2022-12-05T20:51:08.701Z,4.28
2022-12-05T20:53:34.808Z,2.10
2022-12-05T20:56:00.923Z,1.92
2022-12-05T20:58:27.122Z,1.90
2022-12-05T21:00:53.306Z,1.60
2022-12-05T21:03:19.476Z,2.95
2022-12-05T21:05:45.603Z,1.75
2022-12-05T21:08:11.759Z,1.70
2022-12-05T21:10:38.046Z,1.73
2022-12-05T21:13:05.738Z,1.70
2022-12-05T21:15:31.854Z,1.70
2022-12-05T21:17:58.000Z,1.90
2022-12-05T21:20:24.139Z,1.77
2022-12-05T21:22:50.276Z,1.80
2022-12-05T21:25:16.401Z,2.10
2022-12-05T21:27:42.532Z,1.50
2022-12-05T21:30:08.663Z,1.90
2022-12-05T21:32:34.789Z,2.03
2022-12-05T21:35:00.904Z,1.80
2022-12-05T21:37:27.064Z,1.85
2022-12-05T21:39:53.236Z,1.90
2022-12-05T21:42:19.354Z,1.60
2022-12-05T21:44:45.507Z,1.95
2022-12-05T21:47:11.608Z,2.13
2022-12-05T21:49:37.894Z,1.98
2022-12-05T21:52:04.021Z,2.20
2022-12-05T21:54:30.142Z,2.10
2022-12-05T21:56:56.274Z,2.42
2022-12-05T21:59:22.391Z,2.13
2022-12-05T22:01:48.518Z,2.10
2022-12-05T22:04:14.656Z,2.42
2022-12-05T22:06:40.771Z,2.72
2022-12-05T22:09:06.877Z,2.30
2022-12-05T22:11:32.989Z,2.50
2022-12-05T22:13:59.114Z,2.63
2022-12-05T22:16:30.851Z,2.70
2022-12-05T22:18:59.146Z,2.00
2022-12-05T22:21:25.256Z,2.22
2022-12-05T22:23:51.450Z,2.63
2022-12-05T22:26:17.540Z,3.15
2022-12-05T22:28:43.666Z,3.55
2022-12-05T22:31:09.793Z,3.60
2022-12-05T22:33:35.947Z,3.03
2022-12-05T22:36:02.054Z,2.53
2022-12-05T22:38:28.340Z,2.65
2022-12-05T22:40:54.470Z,2.45
2022-12-05T22:43:20.585Z,2.55
2022-12-05T22:45:46.713Z,2.70
2022-12-05T22:48:12.815Z,2.60
2022-12-05T22:50:38.966Z,2.97
2022-12-05T22:53:05.086Z,2.88
2022-12-05T22:55:31.207Z,3.05
2022-12-05T22:57:57.313Z,2.80
2022-12-05T23:00:23.428Z,3.03
2022-12-05T23:02:49.552Z,2.85
2022-12-05T23:05:15.700Z,2.58
2022-12-05T23:07:41.872Z,2.90
2022-12-05T23:10:08.039Z,2.83
2022-12-05T23:12:34.156Z,4.03
2022-12-05T23:15:00.282Z,2.45
2022-12-05T23:17:26.381Z,2.65
2022-12-05T23:19:52.492Z,2.50
2022-12-05T23:22:18.607Z,2.78
2022-12-05T23:24:44.704Z,2.67
2022-12-05T23:27:10.820Z,2.60
2022-12-05T23:29:36.919Z,2.60
2022-12-05T23:32:03.029Z,2.40
2022-12-05T23:34:29.152Z,2.63
2022-12-05T23:36:55.258Z,2.55
2022-12-05T23:39:21.380Z,2.65
2022-12-05T23:41:47.484Z,3.00
2022-12-05T23:44:13.603Z,2.28
2022-12-05T23:46:39.745Z,2.50
2022-12-05T23:49:05.895Z,2.30
2022-12-05T23:51:32.009Z,2.38
2022-12-05T23:53:58.118Z,2.70
2022-12-05T23:56:24.223Z,2.90
2022-12-05T23:58:50.314Z,2.42
